createdAt,value
2022-11-05T00:00:38.338Z,91.26
2022-11-05T00:03:28.967Z,91.41
2022-11-05T00:06:27.257Z,91.54
2022-11-05T00:09:12.531Z,91.40
2022-11-05T00:11:59.887Z,91.28
2022-11-05T00:14:49.403Z,91.24
2022-11-05T00:17:21.560Z,91.31
2022-11-05T00:19:48.453Z,91.26
2022-11-05T00:22:33.450Z,91.16
2022-11-05T00:25:18.591Z,91.36
2022-11-05T00:27:52.787Z,91.48
2022-11-05T00:30:23.268Z,91.57
2022-11-05T00:32:51.549Z,91.63
2022-11-05T00:35:21.854Z,91.57
2022-11-05T00:37:50.288Z,91.42
2022-11-05T00:40:17.459Z,91.40
2022-11-05T00:43:03.125Z,91.48
2022-11-05T00:45:30.488Z,91.63
2022-11-05T00:48:15.756Z,91.78
2022-11-05T00:50:42.710Z,91.80
2022-11-05T00:53:09.963Z,91.84
2022-11-05T00:55:39.983Z,91.70
2022-11-05T00:58:11.341Z,91.69
2022-11-05T01:00:40.785Z,91.79
2022-11-05T01:03:11.109Z,92.27
2022-11-05T01:05:40.676Z,92.37
2022-11-05T01:08:09.186Z,92.34
2022-11-05T01:10:46.970Z,92.24
2022-11-05T01:13:18.753Z,92.13
2022-11-05T01:15:46.617Z,92.24
2022-11-05T01:18:13.686Z,92.06
2022-11-05T01:20:40.679Z,91.93
2022-11-05T01:23:13.154Z,92.07
2022-11-05T01:25:42.538Z,92.13
2022-11-05T01:28:10.014Z,92.34
2022-11-05T01:30:37.515Z,92.63
2022-11-05T01:33:04.359Z,92.52
2022-11-05T01:35:31.203Z,92.36
2022-11-05T01:37:57.868Z,92.29
2022-11-05T01:40:25.345Z,92.21
2022-11-05T01:42:52.204Z,92.32
2022-11-05T01:45:26.935Z,92.42
2022-11-05T01:48:06.913Z,92.50
2022-11-05T01:50:44.134Z,92.83
2022-11-05T01:53:18.210Z,93.09
2022-11-05T01:56:05.545Z,93.05
2022-11-05T01:58:58.607Z,93.22
2022-11-05T02:01:25.474Z,93.23
2022-11-05T02:03:57.340Z,93.12
2022-11-05T02:06:27.437Z,93.08
2022-11-05T02:09:01.366Z,92.99
2022-11-05T02:11:28.338Z,92.82
2022-11-05T02:13:55.375Z,92.79
2022-11-05T02:16:43.041Z,92.79
2022-11-05T02:19:28.635Z,93.04
2022-11-05T02:22:42.730Z,93.19
2022-11-05T02:25:31.454Z,93.14
2022-11-05T02:28:36.471Z,93.17
2022-11-05T02:31:20.800Z,93.01
2022-11-05T02:34:02.780Z,92.96
2022-11-05T02:36:43.318Z,92.86
2022-11-05T02:39:15.758Z,92.88
2022-11-05T02:41:45.592Z,92.88
2022-11-05T02:44:34.183Z,92.99
2022-11-05T02:47:18.292Z,92.99
2022-11-05T02:50:10.307Z,92.96
2022-11-05T02:52:44.464Z,93.07
2022-11-05T02:55:17.317Z,93.21
2022-11-05T02:57:50.738Z,93.36
2022-11-05T03:00:51.817Z,93.62
2022-11-05T03:03:27.397Z,93.48
2022-11-05T03:06:16.382Z,93.33
2022-11-05T03:09:15.500Z,93.28
2022-11-05T03:11:53.615Z,93.32
2022-11-05T03:14:28.206Z,93.40
2022-11-05T03:17:04.020Z,93.37
2022-11-05T03:19:50.953Z,93.37
2022-11-05T03:22:28.118Z,93.54
2022-11-05T03:25:00.825Z,93.56
2022-11-05T03:27:34.091Z,93.73
2022-11-05T03:30:06.120Z,93.71
2022-11-05T03:32:38.364Z,93.70
2022-11-05T03:35:29.367Z,93.62
2022-11-05T03:38:01.523Z,93.53
2022-11-05T03:40:33.674Z,93.56
2022-11-05T03:43:03.352Z,93.55
2022-11-05T03:45:53.243Z,93.52
2022-11-05T03:48:27.012Z,93.47
2022-11-05T03:51:18.772Z,93.42
2022-11-05T03:53:51.345Z,93.43
2022-11-05T03:56:21.098Z,93.44
2022-11-05T03:58:48.775Z,93.63
2022-11-05T04:01:15.970Z,93.69
2022-11-05T04:03:44.170Z,93.71
2022-11-05T04:06:29.783Z,93.63
2022-11-05T04:09:15.240Z,93.61
2022-11-05T04:12:00.611Z,93.60
2022-11-05T04:14:27.588Z,93.50
2022-11-05T04:17:06.664Z,93.45
2022-11-05T04:19:56.203Z,93.44
2022-11-05T04:22:43.090Z,93.45
2022-11-05T04:25:10.477Z,93.45
2022-11-05T04:27:37.384Z,93.46
2022-11-05T04:30:20.123Z,93.44
2022-11-05T04:33:08.355Z,93.35
2022-11-05T04:35:39.640Z,93.45
2022-11-05T04:38:10.878Z,93.58
2022-11-05T04:40:38.128Z,93.69
2022-11-05T04:43:08.239Z,93.84
2022-11-05T04:45:37.699Z,94.02
2022-11-05T04:48:04.787Z,93.99
2022-11-05T04:50:31.873Z,93.89
2022-11-05T04:52:58.751Z,94.03
2022-11-05T04:55:26.444Z,94.29
2022-11-05T04:57:54.610Z,94.41
2022-11-05T05:00:23.323Z,94.53
2022-11-05T05:02:50.269Z,94.69
2022-11-05T05:05:18.681Z,94.73
2022-11-05T05:07:45.491Z,94.58
2022-11-05T05:10:12.814Z,94.62
2022-11-05T05:12:39.689Z,94.60
2022-11-05T05:15:06.836Z,94.59
2022-11-05T05:17:33.702Z,94.72
2022-11-05T05:20:19.199Z,94.74
2022-11-05T05:22:57.465Z,94.70
2022-11-05T05:25:24.384Z,94.58
2022-11-05T05:27:51.305Z,94.54
2022-11-05T05:30:18.475Z,94.79
2022-11-05T05:32:45.119Z,94.80
2022-11-05T05:35:12.149Z,94.75
2022-11-05T05:37:39.026Z,94.63
2022-11-05T05:40:06.515Z,94.45
2022-11-05T05:42:36.336Z,94.27
2022-11-05T05:45:06.155Z,94.25
2022-11-05T05:47:32.846Z,94.22
2022-11-05T05:49:59.659Z,94.38
2022-11-05T05:52:26.424Z,94.34
2022-11-05T05:54:53.158Z,94.33
2022-11-05T05:57:19.911Z,94.18
2022-11-05T05:59:46.614Z,94.06
2022-11-05T06:02:13.551Z,94.06
2022-11-05T06:04:40.424Z,93.97
2022-11-05T06:07:07.232Z,93.90
2022-11-05T06:09:34.025Z,93.88
2022-11-05T06:12:01.067Z,94.00
2022-11-05T06:14:27.867Z,94.01
2022-11-05T06:16:54.577Z,93.86
2022-11-05T06:19:21.341Z,93.61
2022-11-05T06:21:48.125Z,93.52
2022-11-05T06:24:15.067Z,93.48
2022-11-05T06:26:42.756Z,93.59
2022-11-05T06:29:12.705Z,93.64
2022-11-05T06:31:39.658Z,93.62
2022-11-05T06:34:06.635Z,93.71
2022-11-05T06:36:33.480Z,93.65
2022-11-05T06:39:07.837Z,93.53
2022-11-05T06:41:45.630Z,93.34
2022-11-05T06:44:21.888Z,93.23
2022-11-05T06:46:48.843Z,93.25
2022-11-05T06:49:15.628Z,93.19
2022-11-05T06:51:42.685Z,92.96
2022-11-05T06:54:09.475Z,92.72
2022-11-05T06:56:36.218Z,92.66
2022-11-05T06:59:03.259Z,92.45
2022-11-05T07:01:33.622Z,92.34
2022-11-05T07:04:01.215Z,92.20
2022-11-05T07:06:30.109Z,91.95
2022-11-05T07:09:00.175Z,91.57
2022-11-05T07:11:29.381Z,91.31
2022-11-05T07:14:01.991Z,91.13
2022-11-05T07:16:32.651Z,91.10
2022-11-05T07:18:59.806Z,91.05
2022-11-05T07:21:27.678Z,91.04
2022-11-05T07:23:57.723Z,90.94
2022-11-05T07:29:50.711Z,90.45
2022-11-05T07:32:17.708Z,90.40
2022-11-05T07:34:44.488Z,90.37
2022-11-05T07:37:11.302Z,90.05
2022-11-05T07:39:37.934Z,89.93
2022-11-05T07:42:04.752Z,90.03
2022-11-05T07:44:33.341Z,90.42
2022-11-05T07:47:00.071Z,90.91
2022-11-05T07:49:26.724Z,91.03
2022-11-05T07:51:53.460Z,91.01
2022-11-05T07:54:20.325Z,90.97
2022-11-05T07:56:47.387Z,90.83
2022-11-05T07:59:14.283Z,90.72
2022-11-05T08:01:41.247Z,90.45
2022-11-05T08:04:07.989Z,90.06
2022-11-05T08:06:34.870Z,89.84
2022-11-05T08:09:01.658Z,89.97
2022-11-05T08:11:28.429Z,89.57
2022-11-05T08:13:55.160Z,89.38
2022-11-05T08:16:21.926Z,89.42
2022-11-05T08:18:48.951Z,89.01
2022-11-05T08:21:15.789Z,88.35
2022-11-05T08:23:43.162Z,88.05
2022-11-05T08:26:10.415Z,87.98
2022-11-05T08:28:37.166Z,87.47
2022-11-05T08:31:04.109Z,87.17
2022-11-05T08:33:30.958Z,87.17
2022-11-05T08:36:02.184Z,87.22
2022-11-05T08:38:29.244Z,87.22
2022-11-05T08:40:57.565Z,87.18
2022-11-05T08:43:24.844Z,87.49
2022-11-05T08:45:51.794Z,86.97
2022-11-05T08:48:18.873Z,86.87
2022-11-05T08:50:47.659Z,86.43
2022-11-05T08:53:15.460Z,85.26
2022-11-05T08:55:43.360Z,83.49
2022-11-05T08:58:14.416Z,82.83
2022-11-05T09:00:41.411Z,82.16
2022-11-05T09:03:09.161Z,79.32
2022-11-05T09:05:38.635Z,79.06
2022-11-05T09:08:06.853Z,77.92
2022-11-05T09:10:34.038Z,77.33
2022-11-05T09:13:00.951Z,75.67
2022-11-05T09:15:28.271Z,77.77
2022-11-05T09:17:55.162Z,78.21
2022-11-05T09:20:22.560Z,78.00
2022-11-05T09:22:50.076Z,75.24
2022-11-05T09:25:16.945Z,74.36
2022-11-05T09:27:43.796Z,74.18
2022-11-05T09:30:12.530Z,74.49
2022-11-05T09:32:40.052Z,75.37
2022-11-05T09:35:08.015Z,75.43
2022-11-05T09:37:36.843Z,75.31
2022-11-05T09:40:04.632Z,75.86
2022-11-05T09:42:40.775Z,74.74
2022-11-05T09:45:19.868Z,74.30
2022-11-05T09:47:56.283Z,74.52
2022-11-05T09:50:33.301Z,74.02
2022-11-05T09:53:01.250Z,73.92
2022-11-05T09:55:41.539Z,73.99
2022-11-05T09:58:24.433Z,72.70
2022-11-05T10:00:54.469Z,72.37
2022-11-05T10:03:23.559Z,72.21
2022-11-05T10:05:53.977Z,72.00
2022-11-05T10:08:28.854Z,71.65
2022-11-05T10:11:20.350Z,71.44
2022-11-05T10:13:58.119Z,70.45
2022-11-05T10:16:36.313Z,69.10
2022-11-05T10:19:13.060Z,68.79
2022-11-05T10:24:33.241Z,65.91
2022-11-05T10:27:03.561Z,63.27
2022-11-05T10:29:38.374Z,63.98
2022-11-05T10:32:31.381Z,63.75
2022-11-05T10:35:26.504Z,61.47
2022-11-05T10:37:53.509Z,60.81
2022-11-05T10:40:58.684Z,60.98
2022-11-05T10:48:21.978Z,60.37
2022-11-05T10:50:54.592Z,60.35
2022-11-05T10:53:27.305Z,59.21
2022-11-05T10:55:54.658Z,58.99
2022-11-05T10:58:30.856Z,59.06
2022-11-05T11:00:57.752Z,59.00
2022-11-05T11:04:17.033Z,60.21
2022-11-05T11:06:49.282Z,60.50
2022-11-05T11:09:36.631Z,59.85
2022-11-05T11:12:27.027Z,60.37
2022-11-05T11:15:14.353Z,60.09
2022-11-05T11:17:41.637Z,59.71
2022-11-05T11:20:20.209Z,58.53
2022-11-05T11:23:09.547Z,58.46
2022-11-05T11:25:47.129Z,58.85
2022-11-05T11:28:20.348Z,59.35
2022-11-05T11:30:51.220Z,60.08
2022-11-05T11:33:26.372Z,60.01
2022-11-05T11:35:54.152Z,60.05
2022-11-05T11:38:22.687Z,60.30
2022-11-05T11:40:50.882Z,59.43
2022-11-05T11:43:30.075Z,59.12
2022-11-05T11:46:03.728Z,59.53
2022-11-05T11:48:35.847Z,59.99
2022-11-05T11:51:29.874Z,60.41
2022-11-05T11:54:01.098Z,60.42
2022-11-05T11:56:29.915Z,59.88
2022-11-05T11:59:02.397Z,59.74
2022-11-05T12:02:12.005Z,59.57
2022-11-05T12:04:59.460Z,58.85
2022-11-05T12:07:32.117Z,58.65
2022-11-05T12:10:32.531Z,58.74
2022-11-05T12:13:22.546Z,58.25
2022-11-05T12:15:56.609Z,58.51
2022-11-05T12:18:25.494Z,58.44
2022-11-05T12:21:50.925Z,58.35
2022-11-05T12:24:22.120Z,58.28
2022-11-05T12:27:12.215Z,58.03
2022-11-05T12:29:53.273Z,58.31
2022-11-05T12:33:21.901Z,58.37
2022-11-05T12:35:58.084Z,57.89
2022-11-05T12:38:32.047Z,57.76
2022-11-05T12:41:05.130Z,57.27
2022-11-05T12:43:38.180Z,57.49
2022-11-05T12:46:16.767Z,57.49
2022-11-05T12:49:04.057Z,57.58
2022-11-05T12:51:45.023Z,57.61
2022-11-05T12:54:14.937Z,57.76
2022-11-05T12:56:48.482Z,58.56
2022-11-05T12:59:18.271Z,58.85
2022-11-05T13:01:55.932Z,59.05
2022-11-05T13:04:43.045Z,58.90
2022-11-05T13:07:13.393Z,59.19
2022-11-05T13:09:55.285Z,59.07
2022-11-05T13:12:26.908Z,58.57
2022-11-05T13:15:02.282Z,58.40
2022-11-05T13:17:37.600Z,58.54
2022-11-05T13:20:21.655Z,58.62
2022-11-05T13:22:55.108Z,58.52
2022-11-05T13:25:27.449Z,58.55
2022-11-05T13:27:54.240Z,58.40
2022-11-05T13:30:24.887Z,58.85
2022-11-05T13:33:01.594Z,59.12
2022-11-05T13:36:10.480Z,59.08
2022-11-05T13:38:58.909Z,59.27
2022-11-05T13:41:40.774Z,59.57
2022-11-05T13:44:10.410Z,59.64
2022-11-05T13:47:15.165Z,59.99
2022-11-05T13:50:17.407Z,60.13
2022-11-05T13:52:44.309Z,59.99
2022-11-05T13:55:26.563Z,60.25
2022-11-05T13:58:02.397Z,60.24
2022-11-05T14:00:34.703Z,60.26
2022-11-05T14:03:05.216Z,60.73
2022-11-05T14:05:36.678Z,60.74
2022-11-05T14:08:20.705Z,61.22
2022-11-05T14:11:28.855Z,61.32
2022-11-05T14:14:01.503Z,61.62
2022-11-05T14:16:47.285Z,61.89
2022-11-05T14:19:20.272Z,62.02
2022-11-05T14:21:48.252Z,62.16
2022-11-05T14:24:21.284Z,62.21
2022-11-05T14:27:14.465Z,62.35
2022-11-05T14:29:51.135Z,62.52
2022-11-05T14:32:25.386Z,62.68
2022-11-05T14:34:55.567Z,62.85
2022-11-05T14:37:27.033Z,63.02
2022-11-05T14:39:55.322Z,63.16
2022-11-05T14:42:40.297Z,63.28
2022-11-05T14:45:13.382Z,63.54
2022-11-05T14:47:49.563Z,63.62
2022-11-05T14:50:26.558Z,63.68
2022-11-05T14:53:07.257Z,63.88
2022-11-05T14:55:38.905Z,64.05
2022-11-05T14:58:26.523Z,64.12
2022-11-05T15:00:54.626Z,64.00
2022-11-05T15:03:31.142Z,64.01
2022-11-05T15:06:12.950Z,64.16
2022-11-05T15:08:48.712Z,64.51
2022-11-05T15:11:59.650Z,64.70
2022-11-05T15:14:41.924Z,64.92
2022-11-05T15:17:29.244Z,65.15
2022-11-05T15:20:39.776Z,65.27
2022-11-05T15:23:29.412Z,65.55
2022-11-05T15:26:38.485Z,66.19
2022-11-05T15:29:28.426Z,66.30
2022-11-05T15:31:57.170Z,66.35
2022-11-05T15:34:31.804Z,66.28
2022-11-05T15:37:18.998Z,66.32
2022-11-05T15:39:48.440Z,66.69
2022-11-05T15:42:16.730Z,66.91
2022-11-05T15:44:46.887Z,66.93
2022-11-05T15:47:22.215Z,67.02
2022-11-05T15:49:53.588Z,67.27
2022-11-05T15:52:23.516Z,67.55
2022-11-05T15:55:18.198Z,67.75
2022-11-05T15:57:51.582Z,68.04
2022-11-05T16:00:22.295Z,68.44
2022-11-05T16:03:03.968Z,69.06
2022-11-05T16:05:34.175Z,69.46
2022-11-05T16:08:03.720Z,69.94
2022-11-05T16:10:34.524Z,70.24
2022-11-05T16:13:21.512Z,70.29
2022-11-05T16:15:57.063Z,70.23
2022-11-05T16:18:29.861Z,70.37
2022-11-05T16:21:18.328Z,70.70
2022-11-05T16:24:01.605Z,71.35
2022-11-05T16:29:29.415Z,72.32
2022-11-05T16:31:59.481Z,73.02
2022-11-05T16:34:40.660Z,73.12
2022-11-05T16:37:11.802Z,73.65
2022-11-05T16:39:38.593Z,74.03
2022-11-05T16:42:24.091Z,73.96
2022-11-05T16:44:52.617Z,73.92
2022-11-05T16:47:20.439Z,73.73
2022-11-05T16:50:02.052Z,73.53
2022-11-05T16:52:29.242Z,74.05
2022-11-05T16:54:56.182Z,74.17
2022-11-05T16:57:31.500Z,74.21
2022-11-05T16:59:59.948Z,74.34
2022-11-05T17:02:27.083Z,74.40
2022-11-05T17:04:54.345Z,74.48
2022-11-05T17:07:21.185Z,74.55
2022-11-05T17:09:48.125Z,74.85
2022-11-05T17:12:15.474Z,75.01
2022-11-05T17:14:42.469Z,75.22
2022-11-05T17:17:09.940Z,75.31
2022-11-05T17:19:41.577Z,75.26
2022-11-05T17:22:08.415Z,75.24
2022-11-05T17:24:35.370Z,75.51
2022-11-05T17:27:02.302Z,75.51
2022-11-05T17:29:29.275Z,75.60
2022-11-05T17:31:56.183Z,75.52
2022-11-05T17:34:22.967Z,75.81
2022-11-05T17:36:49.763Z,76.01
2022-11-05T17:39:16.715Z,75.98
2022-11-05T17:41:43.890Z,76.53
2022-11-05T17:44:11.436Z,76.80
2022-11-05T17:46:38.308Z,77.25
2022-11-05T17:49:05.172Z,77.23
2022-11-05T17:51:33.703Z,77.70
2022-11-05T17:54:00.597Z,77.40
2022-11-05T17:56:33.868Z,77.34
2022-11-05T17:59:02.866Z,77.31
2022-11-05T18:01:33.279Z,77.43
2022-11-05T18:04:05.424Z,77.48
2022-11-05T18:06:37.352Z,77.84
2022-11-05T18:09:07.027Z,78.55
2022-11-05T18:11:35.375Z,78.31
2022-11-05T18:14:03.341Z,78.50
2022-11-05T18:16:30.562Z,78.56
2022-11-05T18:18:57.947Z,78.41
2022-11-05T18:21:24.767Z,78.38
2022-11-05T18:23:52.043Z,78.43
2022-11-05T18:26:19.016Z,78.85
2022-11-05T18:28:45.960Z,79.31
2022-11-05T18:31:18.095Z,78.99
2022-11-05T18:33:46.391Z,79.04
2022-11-05T18:36:18.511Z,79.26
2022-11-05T18:38:45.918Z,79.41
2022-11-05T18:41:12.932Z,79.40
2022-11-05T18:43:40.039Z,79.21
2022-11-05T18:46:07.363Z,79.72
2022-11-05T18:48:35.352Z,80.32
2022-11-05T18:51:10.066Z,79.97
2022-11-05T18:53:38.125Z,79.90
2022-11-05T18:56:22.905Z,79.87
2022-11-05T18:59:08.395Z,80.13
2022-11-05T19:01:38.892Z,80.23
2022-11-05T19:04:06.014Z,80.16
2022-11-05T19:06:34.798Z,80.19
2022-11-05T19:09:02.215Z,80.00
2022-11-05T19:11:28.983Z,80.18
2022-11-05T19:13:55.767Z,80.45
2022-11-05T19:16:25.517Z,81.06
2022-11-05T19:18:52.508Z,81.07
2022-11-05T19:21:27.174Z,81.18
2022-11-05T19:23:57.331Z,81.07
2022-11-05T19:26:28.571Z,80.99
2022-11-05T19:29:03.304Z,80.83
2022-11-05T19:31:34.119Z,80.87
2022-11-05T19:34:02.578Z,81.06
2022-11-05T19:36:29.632Z,81.11
2022-11-05T19:38:59.301Z,81.22
2022-11-05T19:41:28.035Z,81.75
2022-11-05T19:43:57.427Z,81.99
2022-11-05T19:46:25.266Z,82.09
2022-11-05T19:48:52.515Z,82.22
2022-11-05T19:51:25.699Z,82.21
2022-11-05T19:53:54.656Z,82.25
2022-11-05T19:56:37.799Z,82.19
2022-11-05T19:59:08.547Z,82.48
2022-11-05T20:01:36.067Z,83.10
2022-11-05T20:04:04.224Z,83.32
2022-11-05T20:06:37.417Z,83.55
2022-11-05T20:09:22.613Z,83.72
2022-11-05T20:11:53.744Z,83.47
2022-11-05T20:14:20.654Z,83.38
2022-11-05T20:16:47.965Z,83.69
2022-11-05T20:19:18.050Z,83.68
2022-11-05T20:21:45.663Z,84.44
2022-11-05T20:24:18.816Z,84.45
2022-11-05T20:26:58.694Z,84.84
2022-11-05T20:29:30.532Z,84.43
2022-11-05T20:32:03.379Z,84.47
2022-11-05T20:34:32.325Z,84.44
2022-11-05T20:36:59.885Z,84.44
2022-11-05T20:39:27.059Z,84.27
2022-11-05T20:41:55.848Z,84.42
2022-11-05T20:44:22.896Z,84.67
2022-11-05T20:46:49.763Z,84.57
2022-11-05T20:49:20.072Z,85.22
2022-11-05T20:51:49.398Z,85.17
2022-11-05T20:54:16.202Z,84.70
2022-11-05T20:56:43.071Z,84.70
2022-11-05T20:59:10.550Z,85.29
2022-11-05T21:01:37.668Z,85.22
2022-11-05T21:04:05.091Z,85.05
2022-11-05T21:06:33.113Z,85.06
2022-11-05T21:09:00.450Z,85.14
2022-11-05T21:11:27.651Z,85.31
2022-11-05T21:13:54.851Z,85.40
2022-11-05T21:16:22.499Z,85.49
2022-11-05T21:18:49.619Z,85.62
2022-11-05T21:21:20.428Z,85.71
2022-11-05T21:23:47.677Z,86.05
2022-11-05T21:26:16.228Z,86.58
2022-11-05T21:28:43.529Z,86.35
2022-11-05T21:31:10.744Z,86.20
2022-11-05T21:33:39.164Z,87.31
2022-11-05T21:36:12.673Z,88.18
2022-11-05T21:38:41.404Z,87.47
2022-11-05T21:41:17.406Z,87.47
2022-11-05T21:43:44.570Z,87.23
2022-11-05T21:46:13.153Z,87.10
2022-11-05T21:48:40.244Z,87.04
2022-11-05T21:51:27.981Z,86.93
2022-11-05T21:54:14.727Z,88.26
2022-11-05T21:57:05.882Z,88.67
2022-11-05T21:59:47.289Z,88.74
2022-11-05T22:02:17.487Z,89.38
2022-11-05T22:04:47.531Z,90.50
2022-11-05T22:07:21.817Z,90.45
2022-11-05T22:09:59.593Z,90.21
2022-11-05T22:12:27.530Z,89.68
2022-11-05T22:14:54.786Z,89.36
2022-11-05T22:17:24.152Z,89.18
2022-11-05T22:19:55.554Z,89.33
2022-11-05T22:22:22.701Z,89.20
2022-11-05T22:24:49.882Z,88.78
2022-11-05T22:27:20.926Z,89.02
2022-11-05T22:29:49.361Z,89.14
2022-11-05T22:32:16.858Z,89.03
2022-11-05T22:34:43.826Z,89.28
2022-11-05T22:37:13.162Z,89.48
2022-11-05T22:39:39.996Z,89.29
2022-11-05T22:42:08.761Z,89.15
2022-11-05T22:44:39.008Z,89.23
2022-11-05T22:47:06.354Z,89.03
2022-11-05T22:49:33.854Z,89.07
2022-11-05T22:52:02.389Z,89.11
2022-11-05T22:54:29.271Z,89.28
2022-11-05T22:56:56.276Z,89.45
2022-11-05T22:59:23.351Z,89.88
2022-11-05T23:01:50.302Z,90.05
2022-11-05T23:04:17.564Z,90.09
2022-11-05T23:07:03.151Z,90.11
2022-11-05T23:09:57.694Z,90.08
2022-11-05T23:12:29.766Z,90.07
2022-11-05T23:14:59.710Z,90.70
2022-11-05T23:17:46.245Z,91.03
2022-11-05T23:20:38.653Z,91.12
2022-11-05T23:23:31.007Z,91.32
2022-11-05T23:25:59.527Z,91.45
2022-11-05T23:28:26.564Z,91.48
2022-11-05T23:31:14.667Z,91.64
2022-11-05T23:33:41.549Z,91.82
2022-11-05T23:36:30.857Z,91.76
2022-11-05T23:38:57.744Z,92.02
2022-11-05T23:42:01.620Z,92.39
2022-11-05T23:44:49.908Z,92.44
2022-11-05T23:47:39.414Z,92.43
2022-11-05T23:50:06.615Z,92.34
2022-11-05T23:52:33.945Z,92.50
2022-11-05T23:55:04.247Z,92.58
2022-11-05T23:57:31.255Z,92.44
2022-11-05T23:59:58.293Z,92.75
